createdAt,value
2022-09-09T00:02:21.983Z,7.98
2022-09-09T00:04:56.458Z,7.99
2022-09-09T00:07:30.921Z,7.97
2022-09-09T00:10:05.641Z,7.91
2022-09-09T00:12:37.488Z,7.90
2022-09-09T00:15:12.183Z,7.90
2022-09-09T00:17:45.851Z,7.98
2022-09-09T00:20:16.067Z,7.98
2022-09-09T00:22:49.111Z,7.87
2022-09-09T00:25:22.851Z,7.93
2022-09-09T00:27:52.325Z,7.83
2022-09-09T00:30:23.752Z,7.85
2022-09-09T00:32:59.331Z,7.85
2022-09-09T00:35:30.349Z,7.77
2022-09-09T00:38:01.465Z,7.77
2022-09-09T00:40:34.659Z,7.77
2022-09-09T00:43:15.220Z,7.68
2022-09-09T00:46:00.973Z,7.60
2022-09-09T00:48:37.057Z,7.56
2022-09-09T00:51:08.454Z,7.65
2022-09-09T00:53:43.451Z,7.69
2022-09-09T00:56:16.301Z,7.68
2022-09-09T00:58:46.585Z,7.62
2022-09-09T01:01:16.180Z,7.62
2022-09-09T01:03:50.340Z,7.63
2022-09-09T01:06:19.506Z,7.58
2022-09-09T01:09:12.025Z,7.62
2022-09-09T01:11:45.664Z,7.63
2022-09-09T01:14:20.945Z,7.57
2022-09-09T01:16:50.570Z,7.55
2022-09-09T01:19:27.101Z,7.61
2022-09-09T01:22:01.618Z,7.53
2022-09-09T01:24:34.286Z,7.50
2022-09-09T01:27:06.312Z,7.43
2022-09-09T01:29:35.020Z,7.40
2022-09-09T01:32:04.964Z,7.43
2022-09-09T01:34:34.523Z,7.39
2022-09-09T01:37:06.009Z,7.36
2022-09-09T01:39:35.621Z,7.36
2022-09-09T01:42:06.534Z,7.33
2022-09-09T01:44:35.730Z,7.29
2022-09-09T01:47:09.765Z,7.13
2022-09-09T01:49:39.089Z,7.21
2022-09-09T01:52:09.484Z,7.16
2022-09-09T01:54:38.290Z,7.08
2022-09-09T01:57:11.495Z,7.05
2022-09-09T01:59:49.203Z,7.02
2022-09-09T02:02:20.425Z,6.95
2022-09-09T02:04:51.110Z,6.90
2022-09-09T02:07:25.571Z,6.81
2022-09-09T02:09:57.997Z,6.61
2022-09-09T02:12:28.505Z,6.62
2022-09-09T02:14:59.018Z,6.67
2022-09-09T02:17:30.154Z,6.65
2022-09-09T02:20:03.181Z,6.63
2022-09-09T02:22:35.711Z,6.62
2022-09-09T02:25:06.831Z,6.65
2022-09-09T02:30:42.991Z,6.69
2022-09-09T02:33:13.884Z,6.65
2022-09-09T02:35:43.498Z,6.47
2022-09-09T02:38:14.870Z,6.56
2022-09-09T02:40:43.718Z,6.61
2022-09-09T02:43:12.461Z,6.60
2022-09-09T02:45:45.000Z,6.49
2022-09-09T02:51:06.267Z,6.50
2022-09-09T02:53:38.759Z,6.48
2022-09-09T02:56:09.380Z,6.48
2022-09-09T02:58:37.961Z,6.43
2022-09-09T03:01:06.480Z,6.30
2022-09-09T03:03:35.756Z,6.30
2022-09-09T03:06:06.823Z,6.34
2022-09-09T03:14:33.819Z,6.32
2022-09-09T03:17:03.952Z,6.19
2022-09-09T03:22:32.712Z,6.10
2022-09-09T03:25:27.019Z,6.11
2022-09-09T03:27:56.576Z,6.03
2022-09-09T03:33:19.105Z,6.06
2022-09-09T03:35:50.155Z,6.11
2022-09-09T03:38:20.222Z,6.17
2022-09-09T03:40:55.007Z,6.20
2022-09-09T03:43:23.947Z,6.29
2022-09-09T03:45:52.663Z,6.33
2022-09-09T03:48:22.012Z,6.39
2022-09-09T03:50:51.821Z,6.48
2022-09-09T03:53:23.203Z,6.53
2022-09-09T03:55:54.089Z,6.59
2022-09-09T03:58:22.885Z,6.66
2022-09-09T04:00:56.554Z,6.74
2022-09-09T04:03:27.981Z,6.79
2022-09-09T04:05:57.668Z,6.86
2022-09-09T04:08:27.978Z,6.87
2022-09-09T04:10:59.951Z,6.98
2022-09-09T04:13:28.991Z,7.13
2022-09-09T04:15:58.246Z,7.13
2022-09-09T04:18:27.182Z,7.18
2022-09-09T04:20:56.523Z,7.29
2022-09-09T04:26:15.454Z,7.35
2022-09-09T04:28:44.119Z,7.53
2022-09-09T04:31:21.585Z,7.65
2022-09-09T04:33:50.834Z,7.68
2022-09-09T04:36:21.031Z,7.68
2022-09-09T04:38:51.039Z,7.71
2022-09-09T04:44:07.701Z,7.81
2022-09-09T04:46:37.288Z,7.94
2022-09-09T04:49:07.231Z,8.09
2022-09-09T04:51:36.464Z,8.19
2022-09-09T04:54:07.177Z,8.33
2022-09-09T04:56:38.332Z,8.42
2022-09-09T04:59:08.480Z,8.53
2022-09-09T05:01:37.334Z,8.54
2022-09-09T05:04:05.930Z,8.65
2022-09-09T05:06:34.760Z,8.78
2022-09-09T05:09:03.474Z,8.83
2022-09-09T05:11:38.729Z,8.95
2022-09-09T05:14:09.625Z,9.09
2022-09-09T05:16:38.317Z,9.08
2022-09-09T05:19:10.055Z,9.13
2022-09-09T05:21:39.001Z,9.19
2022-09-09T05:24:08.203Z,9.30
2022-09-09T05:26:50.968Z,9.29
2022-09-09T05:29:21.230Z,9.29
2022-09-09T05:31:50.291Z,9.36
2022-09-09T05:34:19.214Z,9.42
2022-09-09T05:36:48.095Z,9.46
2022-09-09T05:39:17.527Z,9.67
2022-09-09T05:41:46.545Z,9.70
2022-09-09T05:44:17.271Z,9.71
2022-09-09T05:46:49.541Z,9.76
2022-09-09T05:49:18.374Z,9.87
2022-09-09T05:51:47.726Z,9.86
2022-09-09T05:54:17.614Z,9.83
2022-09-09T05:56:51.582Z,9.77
2022-09-09T05:59:21.018Z,9.95
2022-09-09T06:01:51.520Z,9.92
2022-09-09T06:04:22.843Z,9.96
2022-09-09T06:06:51.498Z,9.90
2022-09-09T06:09:20.590Z,9.78
2022-09-09T06:11:50.037Z,9.98
2022-09-09T06:14:19.382Z,10.20
2022-09-09T06:16:48.604Z,10.10
2022-09-09T06:19:19.122Z,10.05
2022-09-09T06:24:46.388Z,10.21
2022-09-09T06:27:15.587Z,10.44
2022-09-09T06:29:43.720Z,10.62
2022-09-09T06:32:12.712Z,10.55
2022-09-09T06:34:43.306Z,10.68
2022-09-09T06:37:12.631Z,10.53
2022-09-09T06:39:41.883Z,10.66
2022-09-09T06:42:13.742Z,10.57
2022-09-09T06:44:42.529Z,10.84
2022-09-09T06:47:12.277Z,11.13
2022-09-09T06:49:44.604Z,11.09
2022-09-09T06:52:16.933Z,11.37
2022-09-09T06:54:47.692Z,11.43
2022-09-09T06:57:39.278Z,11.70
2022-09-09T07:00:08.569Z,11.90
2022-09-09T07:02:40.760Z,12.13
2022-09-09T07:05:11.161Z,12.15
2022-09-09T07:07:39.646Z,11.93
2022-09-09T07:10:08.699Z,11.89
2022-09-09T07:12:37.179Z,11.85
2022-09-09T07:15:06.268Z,12.03
2022-09-09T07:23:41.538Z,11.98
2022-09-09T07:26:20.953Z,11.66
2022-09-09T07:28:49.855Z,11.53
2022-09-09T07:31:20.201Z,11.68
2022-09-09T07:52:48.084Z,13.66
2022-09-09T07:55:17.642Z,13.56
2022-09-09T07:57:46.307Z,13.52
2022-09-09T08:00:16.093Z,13.45
2022-09-09T08:02:44.748Z,13.63
2022-09-09T08:05:14.036Z,13.53
2022-09-09T08:07:42.449Z,13.35
2022-09-09T08:10:12.427Z,13.03
2022-09-09T08:12:47.654Z,12.92
2022-09-09T08:15:24.739Z,13.14
2022-09-09T08:17:53.305Z,13.35
2022-09-09T08:20:21.772Z,13.87
2022-09-09T08:25:36.979Z,15.71
2022-09-09T08:28:05.550Z,16.14
2022-09-09T08:30:34.372Z,15.77
2022-09-09T08:33:02.825Z,15.13
2022-09-09T08:35:33.763Z,14.39
2022-09-09T08:38:06.483Z,14.33
2022-09-09T08:40:42.984Z,14.03
2022-09-09T08:43:11.832Z,13.67
2022-09-09T08:45:47.949Z,13.48
2022-09-09T08:48:22.356Z,13.62
2022-09-09T08:50:51.939Z,13.84
2022-09-09T08:53:23.011Z,14.08
2022-09-09T08:55:54.224Z,14.44
2022-09-09T08:58:23.640Z,14.46
2022-09-09T09:01:00.648Z,14.73
2022-09-09T09:03:33.477Z,14.74
2022-09-09T09:06:07.812Z,14.44
2022-09-09T09:08:42.614Z,14.49
2022-09-09T09:11:13.194Z,14.33
2022-09-09T09:13:44.130Z,14.39
2022-09-09T09:16:17.739Z,14.18
2022-09-09T09:18:46.304Z,14.03
2022-09-09T09:21:19.915Z,13.98
2022-09-09T09:23:55.456Z,13.85
2022-09-09T09:26:27.507Z,14.42
2022-09-09T09:28:58.838Z,15.20
2022-09-09T09:31:28.394Z,15.62
2022-09-09T09:36:59.809Z,14.75
2022-09-09T09:42:23.837Z,14.70
2022-09-09T09:44:53.439Z,14.84
2022-09-09T09:47:22.429Z,14.86
2022-09-09T09:49:54.945Z,15.09
2022-09-09T09:52:25.361Z,15.44
2022-09-09T09:54:55.132Z,15.61
2022-09-09T09:57:30.516Z,15.77
2022-09-09T10:00:17.876Z,15.55
2022-09-09T10:02:47.922Z,15.31
2022-09-09T10:05:18.409Z,15.23
2022-09-09T10:07:49.205Z,15.33
2022-09-09T10:10:26.954Z,15.89
2022-09-09T10:13:01.704Z,16.10
2022-09-09T10:15:35.759Z,15.99
2022-09-09T10:18:13.105Z,15.22
2022-09-09T10:20:49.106Z,14.72
2022-09-09T10:23:26.531Z,15.61
2022-09-09T10:26:06.420Z,16.96
2022-09-09T10:31:29.781Z,19.84
2022-09-09T10:34:03.324Z,19.50
2022-09-09T10:36:31.879Z,19.86
2022-09-09T10:39:02.368Z,20.13
2022-09-09T10:41:42.387Z,18.94
2022-09-09T10:44:33.679Z,18.01
2022-09-09T10:47:14.398Z,16.97
2022-09-09T10:49:57.210Z,16.84
2022-09-09T10:52:31.979Z,17.17
2022-09-09T10:55:02.925Z,19.01
2022-09-09T10:57:37.520Z,21.36
2022-09-09T11:00:07.535Z,22.19
2022-09-09T11:02:38.451Z,20.98
2022-09-09T11:05:10.407Z,19.88
2022-09-09T11:07:44.434Z,18.83
2022-09-09T11:10:20.165Z,17.89
2022-09-09T11:12:50.247Z,16.91
2022-09-09T11:15:23.006Z,16.23
2022-09-09T11:17:55.769Z,15.86
2022-09-09T11:20:26.776Z,15.74
2022-09-09T11:22:58.705Z,15.75
2022-09-09T11:25:30.577Z,16.25
2022-09-09T11:28:10.969Z,17.82
2022-09-09T11:31:02.629Z,17.96
2022-09-09T11:39:52.389Z,15.70
2022-09-09T11:42:22.059Z,15.37
2022-09-09T11:44:51.172Z,15.22
2022-09-09T11:47:23.061Z,14.88
2022-09-09T11:49:51.856Z,14.73
2022-09-09T11:52:28.149Z,15.45
2022-09-09T11:55:10.959Z,17.39
2022-09-09T11:57:40.193Z,18.68
2022-09-09T12:00:08.993Z,18.69
2022-09-09T12:02:37.940Z,18.74
2022-09-09T12:05:10.027Z,18.78
2022-09-09T12:07:40.845Z,18.26
2022-09-09T12:10:23.491Z,19.75
2022-09-09T12:12:52.437Z,21.84
2022-09-09T12:15:27.261Z,22.54
2022-09-09T12:18:00.126Z,22.44
2022-09-09T12:20:35.655Z,21.27
2022-09-09T12:23:20.541Z,20.92
2022-09-09T12:25:57.702Z,20.82
2022-09-09T12:28:30.321Z,20.87
2022-09-09T12:31:01.839Z,19.64
2022-09-09T12:33:37.114Z,18.55
2022-09-09T12:36:07.494Z,17.74
2022-09-09T12:38:39.227Z,16.91
2022-09-09T12:41:22.166Z,17.12
2022-09-09T12:46:54.429Z,20.91
2022-09-09T12:49:29.687Z,21.98
2022-09-09T12:54:56.706Z,24.00
2022-09-09T12:57:27.927Z,23.26
2022-09-09T13:00:07.663Z,22.72
2022-09-09T13:02:36.794Z,24.08
2022-09-09T13:05:17.543Z,25.89
2022-09-09T13:07:46.490Z,27.05
2022-09-09T13:10:21.483Z,26.76
2022-09-09T13:13:01.829Z,26.40
2022-09-09T13:15:32.224Z,26.08
2022-09-09T13:18:02.110Z,26.34
2022-09-09T13:20:32.252Z,26.11
2022-09-09T13:23:01.151Z,25.22
2022-09-09T13:25:30.266Z,23.98
2022-09-09T13:28:00.446Z,22.77
2022-09-09T13:30:32.206Z,22.88
2022-09-09T13:33:04.892Z,24.32
2022-09-09T13:35:33.727Z,24.74
2022-09-09T13:38:09.153Z,25.28
2022-09-09T13:40:41.194Z,26.37
2022-09-09T13:43:19.085Z,27.60
2022-09-09T13:48:37.659Z,28.43
2022-09-09T13:51:07.287Z,26.76
2022-09-09T13:53:36.765Z,26.10
2022-09-09T13:56:06.374Z,26.23
2022-09-09T13:58:36.039Z,26.44
2022-09-09T14:01:04.838Z,26.05
2022-09-09T14:03:35.372Z,26.30
2022-09-09T14:06:05.512Z,26.50
2022-09-09T14:08:38.731Z,26.53
2022-09-09T14:11:07.494Z,24.53
2022-09-09T14:13:38.740Z,22.35
2022-09-09T14:16:07.724Z,21.53
2022-09-09T14:18:37.138Z,21.24
2022-09-09T14:21:08.251Z,22.25
2022-09-09T14:23:37.470Z,23.62
2022-09-09T14:26:06.376Z,24.16
2022-09-09T14:31:25.531Z,24.33
2022-09-09T14:33:54.367Z,24.70
2022-09-09T14:36:25.389Z,25.07
2022-09-09T14:38:54.273Z,25.47
2022-09-09T14:41:24.547Z,25.75
2022-09-09T14:43:53.605Z,25.36
2022-09-09T14:46:22.743Z,25.94
2022-09-09T14:48:51.682Z,25.59
2022-09-09T14:51:23.754Z,25.33
2022-09-09T14:53:55.879Z,24.97
2022-09-09T14:56:26.102Z,24.67
2022-09-09T14:58:56.482Z,24.95
2022-09-09T15:01:28.777Z,24.14
2022-09-09T15:03:59.389Z,24.24
2022-09-09T15:06:31.626Z,23.56
2022-09-09T15:09:03.857Z,23.53
2022-09-09T15:11:34.379Z,23.57
2022-09-09T15:14:06.463Z,23.19
2022-09-09T15:16:37.521Z,23.14
2022-09-09T15:19:07.010Z,22.64
2022-09-09T15:21:36.663Z,22.74
2022-09-09T15:24:08.620Z,22.68
2022-09-09T15:26:39.771Z,22.08
2022-09-09T15:29:09.417Z,21.87
2022-09-09T15:31:38.692Z,21.23
2022-09-09T15:34:08.449Z,20.83
2022-09-09T15:36:38.125Z,20.84
2022-09-09T15:39:09.457Z,20.07
2022-09-09T15:41:38.733Z,18.53
2022-09-09T15:44:07.731Z,17.30
2022-09-09T15:46:37.412Z,16.32
2022-09-09T15:49:11.433Z,15.63
2022-09-09T15:51:43.536Z,15.02
2022-09-09T15:57:14.873Z,13.97
2022-09-09T15:59:46.439Z,13.61
2022-09-09T16:02:14.928Z,13.38
2022-09-09T16:04:43.641Z,13.03
2022-09-09T16:07:12.283Z,12.75
2022-09-09T16:09:40.826Z,12.51
2022-09-09T16:12:11.189Z,12.40
2022-09-09T16:14:42.030Z,12.20
2022-09-09T16:17:11.284Z,12.10
2022-09-09T16:19:40.215Z,11.97
2022-09-09T16:22:09.587Z,11.90
2022-09-09T16:24:38.357Z,11.75
2022-09-09T16:27:08.225Z,11.66
2022-09-09T16:29:37.262Z,11.65
2022-09-09T16:32:09.526Z,11.56
2022-09-09T16:34:38.172Z,11.48
2022-09-09T16:37:06.645Z,11.38
2022-09-09T16:39:35.154Z,11.37
2022-09-09T16:42:05.950Z,11.29
2022-09-09T16:44:35.063Z,11.26
2022-09-09T16:47:06.668Z,11.21
2022-09-09T16:49:39.699Z,11.09
2022-09-09T16:52:08.417Z,11.06
2022-09-09T16:54:37.011Z,10.98
2022-09-09T16:57:06.407Z,10.87
2022-09-09T16:59:36.153Z,10.83
2022-09-09T17:02:06.205Z,10.84
2022-09-09T17:04:55.188Z,10.86
2022-09-09T17:07:23.866Z,10.82
2022-09-09T17:09:52.499Z,10.78
2022-09-09T17:12:21.601Z,10.77
2022-09-09T17:14:49.898Z,10.80
2022-09-09T17:17:31.032Z,10.73
2022-09-09T17:20:03.031Z,10.67
2022-09-09T17:22:33.051Z,10.64
2022-09-09T17:25:01.558Z,10.55
2022-09-09T17:30:57.280Z,10.40
2022-09-09T17:33:27.579Z,10.36
2022-09-09T17:35:58.795Z,10.29
2022-09-09T17:38:29.535Z,10.20
2022-09-09T17:43:53.352Z,10.15
2022-09-09T17:46:23.494Z,10.12
2022-09-09T17:48:53.441Z,10.07
2022-09-09T17:51:26.133Z,10.04
2022-09-09T17:53:56.401Z,10.00
2022-09-09T17:56:26.585Z,9.97
2022-09-09T17:58:55.865Z,9.97
2022-09-09T18:01:25.724Z,9.93
2022-09-09T18:03:54.822Z,9.92
2022-09-09T18:06:28.917Z,9.86
2022-09-09T18:08:58.671Z,9.78
2022-09-09T18:11:28.175Z,9.72
2022-09-09T18:13:58.156Z,9.66
2022-09-09T18:16:27.082Z,9.64
2022-09-09T18:18:58.534Z,9.66
2022-09-09T18:21:32.467Z,9.61
2022-09-09T18:24:02.671Z,9.57
2022-09-09T18:26:32.051Z,9.59
2022-09-09T18:29:03.383Z,9.61
2022-09-09T18:31:33.053Z,9.60
2022-09-09T18:34:03.754Z,9.54
2022-09-09T18:36:36.338Z,9.49
2022-09-09T18:39:05.889Z,9.43
2022-09-09T18:41:36.328Z,9.38
2022-09-09T18:44:06.888Z,9.38
2022-09-09T18:46:36.935Z,9.37
2022-09-09T18:49:06.336Z,9.35
2022-09-09T18:51:37.356Z,9.29
2022-09-09T18:54:08.312Z,9.22
2022-09-09T18:56:37.681Z,9.15
2022-09-09T18:59:09.733Z,9.08
2022-09-09T19:01:38.695Z,9.01
2022-09-09T19:04:09.049Z,8.94
2022-09-09T19:06:41.601Z,8.89
2022-09-09T19:09:16.386Z,8.85
2022-09-09T19:11:45.073Z,8.84
2022-09-09T19:14:15.469Z,8.83
2022-09-09T19:16:46.102Z,8.83
2022-09-09T19:19:16.345Z,8.80
2022-09-09T19:21:47.255Z,8.78
2022-09-09T19:24:17.967Z,8.77
2022-09-09T19:26:48.935Z,8.73
2022-09-09T19:29:19.844Z,8.72
2022-09-09T19:32:18.623Z,8.69
2022-09-09T19:34:37.845Z,8.67
2022-09-09T19:37:18.112Z,8.72
2022-09-09T19:39:49.814Z,8.70
2022-09-09T19:42:18.828Z,8.66
2022-09-09T19:44:47.821Z,8.62
2022-09-09T19:47:22.778Z,8.57
2022-09-09T19:49:52.178Z,8.52
2022-09-09T19:52:22.341Z,8.49
2022-09-09T19:54:52.819Z,8.47
2022-09-09T19:57:22.091Z,8.46
2022-09-09T19:59:50.757Z,8.47
2022-09-09T20:02:19.680Z,8.46
2022-09-09T20:04:48.964Z,8.43
2022-09-09T20:07:20.792Z,8.39
2022-09-09T20:12:40.305Z,8.32
2022-09-09T20:15:10.050Z,8.31
2022-09-09T20:17:39.677Z,8.28
2022-09-09T20:20:08.807Z,8.25
2022-09-09T20:22:38.093Z,8.22
2022-09-09T20:25:08.773Z,8.21
2022-09-09T20:27:39.991Z,8.18
2022-09-09T20:30:09.714Z,8.17
2022-09-09T20:32:38.476Z,8.16
2022-09-09T20:35:08.602Z,8.18
2022-09-09T20:37:37.598Z,8.17
2022-09-09T20:40:06.526Z,8.15
2022-09-09T20:42:36.620Z,8.14
2022-09-09T20:45:09.463Z,8.14
2022-09-09T20:47:38.323Z,8.13
2022-09-09T20:50:08.105Z,8.15
2022-09-09T20:52:43.220Z,8.15
2022-09-09T20:55:11.945Z,8.12
2022-09-09T20:57:40.660Z,8.13
2022-09-09T21:00:12.082Z,8.13
2022-09-09T21:02:40.775Z,8.15
2022-09-09T21:05:11.390Z,8.13
2022-09-09T21:16:47.408Z,7.93
2022-09-09T21:19:15.822Z,7.88
2022-09-09T21:21:45.746Z,7.81
2022-09-09T21:24:13.944Z,7.78
2022-09-09T21:26:42.576Z,7.78
2022-09-09T21:29:11.310Z,7.77
2022-09-09T21:31:40.513Z,7.75
2022-09-09T21:34:13.458Z,7.73
2022-09-09T21:36:42.613Z,7.74
2022-09-09T21:39:11.354Z,7.74
2022-09-09T21:41:40.277Z,7.72
2022-09-09T21:44:09.978Z,7.68
2022-09-09T21:46:39.626Z,7.65
2022-09-09T21:49:10.071Z,7.61
2022-09-09T21:51:38.730Z,7.56
2022-09-09T21:54:07.847Z,7.53
2022-09-09T21:56:36.949Z,7.52
2022-09-09T21:59:05.617Z,7.50
2022-09-09T22:01:35.365Z,7.47
2022-09-09T22:04:03.965Z,7.42
2022-09-09T22:06:34.342Z,7.39
2022-09-09T22:09:03.664Z,7.36
2022-09-09T22:11:32.226Z,7.31
2022-09-09T22:14:00.718Z,7.27
2022-09-09T22:16:29.627Z,7.25
2022-09-09T22:18:59.489Z,7.21
2022-09-09T22:21:29.185Z,7.18
2022-09-09T22:24:00.240Z,7.14
2022-09-09T22:26:29.539Z,7.13
2022-09-09T22:28:58.213Z,7.10
2022-09-09T22:31:26.871Z,7.09
2022-09-09T22:33:55.819Z,7.07
2022-09-09T22:36:26.234Z,7.07
2022-09-09T22:41:45.420Z,7.04
2022-09-09T22:44:14.747Z,7.02
2022-09-09T22:46:43.370Z,7.02
2022-09-09T22:49:11.716Z,7.03
2022-09-09T22:51:40.271Z,6.92
2022-09-09T22:54:09.374Z,7.09
2022-09-09T22:56:38.041Z,7.11
2022-09-09T22:59:07.642Z,7.15
2022-09-09T23:01:36.007Z,7.19
2022-09-09T23:04:04.774Z,7.17
2022-09-09T23:06:33.726Z,7.15
2022-09-09T23:09:03.733Z,7.15
2022-09-09T23:11:33.677Z,7.15
2022-09-09T23:14:03.278Z,7.16
2022-09-09T23:16:35.801Z,7.20
2022-09-09T23:19:03.836Z,7.23
2022-09-09T23:21:32.856Z,7.22
2022-09-09T23:24:01.401Z,7.25
2022-09-09T23:26:30.194Z,7.30
2022-09-09T23:28:59.673Z,7.32
2022-09-09T23:31:29.495Z,7.32
2022-09-09T23:34:00.293Z,7.33
2022-09-09T23:36:31.153Z,7.27
2022-09-09T23:39:00.159Z,7.23
2022-09-09T23:41:28.582Z,7.21
2022-09-09T23:43:57.315Z,7.18
2022-09-09T23:46:27.792Z,7.17
2022-09-09T23:48:57.560Z,7.17
2022-09-09T23:51:30.756Z,7.16
2022-09-09T23:54:00.715Z,7.11
2022-09-09T23:56:30.272Z,7.08
2022-09-09T23:58:59.336Z,7.03
